createdAt,value
2023-09-08T00:00:26.474Z,28.29
2023-09-08T00:02:53.256Z,28.25
2023-09-08T00:05:19.897Z,28.23
2023-09-08T00:07:46.620Z,28.21
2023-09-08T00:10:13.355Z,28.19
2023-09-08T00:12:40.461Z,28.17
2023-09-08T00:15:08.156Z,28.14
2023-09-08T00:17:34.880Z,28.14
2023-09-08T00:20:01.669Z,28.14
2023-09-08T00:22:28.404Z,28.15
2023-09-08T00:24:56.044Z,28.14
2023-09-08T00:27:22.743Z,28.10
2023-09-08T00:29:49.444Z,28.07
2023-09-08T00:32:17.104Z,28.05
2023-09-08T00:34:44.571Z,28.04
2023-09-08T00:37:11.686Z,28.02
2023-09-08T00:39:40.242Z,27.98
2023-09-08T00:42:08.132Z,27.98
2023-09-08T00:44:35.294Z,27.94
2023-09-08T00:47:02.037Z,27.92
2023-09-08T00:49:29.759Z,27.91
2023-09-08T00:51:56.870Z,27.91
2023-09-08T00:54:23.558Z,27.89
2023-09-08T00:56:56.545Z,27.87
2023-09-08T00:59:23.627Z,27.85
2023-09-08T01:01:50.359Z,27.82
2023-09-08T01:04:17.330Z,27.80
2023-09-08T01:06:46.227Z,27.78
2023-09-08T01:09:14.453Z,27.78
2023-09-08T01:11:41.314Z,27.77
2023-09-08T01:14:08.836Z,27.74
2023-09-08T01:16:35.909Z,27.77
2023-09-08T01:19:05.932Z,27.76
2023-09-08T01:22:08.229Z,27.74
2023-09-08T01:24:56.670Z,27.72
2023-09-08T01:27:26.136Z,27.67
2023-09-08T01:29:55.076Z,27.63
2023-09-08T01:32:22.174Z,27.61
2023-09-08T01:34:48.916Z,27.58
2023-09-08T01:37:15.604Z,27.59
2023-09-08T01:39:42.246Z,27.55
2023-09-08T01:42:08.950Z,27.53
2023-09-08T01:44:37.281Z,27.50
2023-09-08T01:47:04.178Z,27.47
2023-09-08T01:49:30.842Z,27.46
2023-09-08T01:51:58.993Z,27.44
2023-09-08T01:54:25.732Z,27.42
2023-09-08T01:56:52.530Z,27.41
2023-09-08T01:59:19.226Z,27.38
2023-09-08T02:01:45.993Z,27.34
2023-09-08T02:04:12.757Z,27.30
2023-09-08T02:06:39.501Z,27.26
2023-09-08T02:09:06.144Z,27.25
2023-09-08T02:11:32.810Z,27.23
2023-09-08T02:13:59.936Z,27.21
2023-09-08T02:16:26.776Z,27.17
2023-09-08T02:18:53.537Z,27.17
2023-09-08T02:21:20.731Z,27.17
2023-09-08T02:23:47.387Z,27.13
2023-09-08T02:26:14.224Z,27.08
2023-09-08T02:28:41.043Z,27.03
2023-09-08T02:31:08.017Z,27.01
2023-09-08T02:33:34.756Z,27.01
2023-09-08T02:36:08.491Z,27.00
2023-09-08T02:38:38.693Z,27.00
2023-09-08T02:41:06.061Z,26.98
2023-09-08T02:43:32.799Z,26.97
2023-09-08T02:45:59.553Z,26.95
2023-09-08T02:48:26.698Z,26.92
2023-09-08T02:50:54.987Z,26.89
2023-09-08T02:53:21.936Z,26.88
2023-09-08T02:55:48.562Z,26.85
2023-09-08T02:58:15.298Z,26.83
2023-09-08T03:00:41.951Z,26.83
2023-09-08T03:03:09.133Z,26.82
2023-09-08T03:05:36.532Z,26.81
2023-09-08T03:08:03.502Z,26.79
2023-09-08T03:10:30.398Z,26.79
2023-09-08T03:12:57.915Z,26.77
2023-09-08T03:15:24.717Z,26.75
2023-09-08T03:17:51.480Z,26.71
2023-09-08T03:20:18.279Z,26.69
2023-09-08T03:22:45.002Z,26.66
2023-09-08T03:25:11.655Z,26.66
2023-09-08T03:27:38.406Z,26.66
2023-09-08T03:30:05.791Z,26.64
2023-09-08T03:32:33.047Z,26.63
2023-09-08T03:35:00.906Z,26.61
2023-09-08T03:37:28.025Z,26.61
2023-09-08T03:39:54.761Z,26.61
2023-09-08T03:42:21.731Z,26.61
2023-09-08T03:44:48.914Z,26.60
2023-09-08T03:47:15.791Z,26.60
2023-09-08T03:49:42.561Z,26.57
2023-09-08T03:52:09.273Z,26.55
2023-09-08T03:54:35.953Z,26.53
2023-09-08T03:57:02.651Z,26.52
2023-09-08T03:59:29.280Z,26.50
2023-09-08T04:01:55.980Z,26.49
2023-09-08T04:04:23.306Z,26.47
2023-09-08T04:06:50.024Z,26.44
2023-09-08T04:09:16.814Z,26.42
2023-09-08T04:11:43.545Z,26.39
2023-09-08T04:14:10.275Z,26.39
2023-09-08T04:16:37.099Z,26.39
2023-09-08T04:19:04.911Z,26.40
2023-09-08T04:21:31.968Z,26.39
2023-09-08T04:23:58.723Z,26.37
2023-09-08T04:26:26.064Z,26.38
2023-09-08T04:28:52.768Z,26.37
2023-09-08T04:31:20.649Z,26.36
2023-09-08T04:33:47.421Z,26.35
2023-09-08T04:36:14.616Z,26.34
2023-09-08T04:38:42.803Z,26.33
2023-09-08T04:41:10.675Z,26.30
2023-09-08T04:43:37.549Z,26.29
2023-09-08T04:46:04.889Z,26.29
2023-09-08T04:48:32.175Z,26.28
2023-09-08T04:50:59.269Z,26.28
2023-09-08T04:53:26.620Z,26.27
2023-09-08T04:55:53.421Z,26.26
2023-09-08T04:58:20.169Z,26.22
2023-09-08T05:00:47.575Z,26.22
2023-09-08T05:03:14.384Z,26.19
2023-09-08T05:05:41.268Z,26.18
2023-09-08T05:08:08.106Z,26.17
2023-09-08T05:10:35.635Z,26.14
2023-09-08T05:13:02.354Z,26.12
2023-09-08T05:15:29.289Z,26.12
2023-09-08T05:17:56.014Z,26.09
2023-09-08T05:20:23.525Z,26.06
2023-09-08T05:22:50.447Z,26.07
2023-09-08T05:25:17.928Z,26.06
2023-09-08T05:27:46.821Z,26.07
2023-09-08T05:30:14.076Z,26.06
2023-09-08T05:32:41.602Z,26.05
2023-09-08T05:35:09.277Z,26.04
2023-09-08T05:37:36.014Z,26.03
2023-09-08T05:40:04.842Z,26.02
2023-09-08T05:42:31.664Z,26.02
2023-09-08T05:44:58.420Z,26.02
2023-09-08T05:47:25.161Z,26.01
2023-09-08T05:49:52.614Z,26.00
2023-09-08T05:52:19.454Z,25.99
2023-09-08T05:54:47.250Z,26.00
2023-09-08T05:57:32.612Z,25.99
2023-09-08T05:59:59.565Z,25.98
2023-09-08T06:02:26.428Z,25.97
2023-09-08T06:04:53.129Z,25.97
2023-09-08T06:07:19.869Z,25.96
2023-09-08T06:09:46.629Z,25.97
2023-09-08T06:12:13.452Z,25.98
2023-09-08T06:14:42.065Z,25.98
2023-09-08T06:17:11.246Z,25.98
2023-09-08T06:19:38.068Z,25.98
2023-09-08T06:22:04.878Z,25.98
2023-09-08T06:24:31.844Z,25.99
2023-09-08T06:26:58.802Z,25.98
2023-09-08T06:29:25.569Z,25.98
2023-09-08T06:31:52.316Z,26.00
2023-09-08T06:34:22.780Z,26.00
2023-09-08T06:36:50.485Z,26.00
2023-09-08T06:39:17.305Z,26.01
2023-09-08T06:41:44.205Z,26.02
2023-09-08T06:44:14.755Z,26.03
2023-09-08T06:46:41.828Z,26.04
2023-09-08T06:49:09.054Z,26.03
2023-09-08T06:51:36.098Z,26.06
2023-09-08T06:54:04.100Z,26.07
2023-09-08T06:56:37.844Z,26.09
2023-09-08T06:59:05.595Z,26.09
2023-09-08T07:01:33.110Z,26.10
2023-09-08T07:04:00.567Z,26.14
2023-09-08T07:06:27.933Z,26.14
2023-09-08T07:08:56.747Z,26.15
2023-09-08T07:11:23.521Z,26.18
2023-09-08T07:13:50.927Z,26.21
2023-09-08T07:16:17.799Z,26.24
2023-09-08T07:18:44.924Z,26.27
2023-09-08T07:21:11.925Z,26.30
2023-09-08T07:23:39.402Z,26.33
2023-09-08T07:26:08.560Z,26.36
2023-09-08T07:28:35.921Z,26.39
2023-09-08T07:31:06.534Z,26.43
2023-09-08T07:33:38.130Z,26.49
2023-09-08T07:36:06.973Z,26.52
2023-09-08T07:38:34.627Z,26.56
2023-09-08T07:41:04.858Z,26.59
2023-09-08T07:43:32.450Z,26.63
2023-09-08T07:45:59.544Z,26.67
2023-09-08T07:48:26.598Z,26.71
2023-09-08T07:50:53.569Z,26.75
2023-09-08T07:53:20.330Z,26.82
2023-09-08T07:55:47.112Z,26.87
2023-09-08T07:58:13.811Z,26.93
2023-09-08T08:00:42.090Z,27.15
2023-09-08T08:03:09.726Z,29.09
2023-09-08T08:05:37.209Z,31.89
2023-09-08T08:08:04.100Z,34.49
2023-09-08T08:10:31.424Z,36.66
2023-09-08T08:12:58.303Z,38.41
2023-09-08T08:15:39.385Z,39.82
2023-09-08T08:18:07.385Z,40.99
2023-09-08T08:20:37.731Z,41.86
2023-09-08T08:23:06.273Z,42.64
2023-09-08T08:25:33.788Z,43.22
2023-09-08T08:28:02.080Z,43.74
2023-09-08T08:30:29.499Z,44.15
2023-09-08T08:32:56.531Z,44.41
2023-09-08T08:35:23.445Z,44.74
2023-09-08T08:38:08.600Z,45.09
2023-09-08T08:40:39.459Z,45.10
2023-09-08T08:43:06.489Z,45.03
2023-09-08T08:45:34.068Z,44.89
2023-09-08T08:51:03.722Z,44.41
2023-09-08T08:53:33.442Z,44.58
2023-09-08T08:56:02.478Z,44.91
2023-09-08T08:58:32.423Z,44.87
2023-09-08T09:01:01.076Z,44.94
2023-09-08T09:03:29.428Z,45.06
2023-09-08T09:05:56.264Z,45.34
2023-09-08T09:08:27.706Z,45.38
2023-09-08T09:11:14.466Z,45.24
2023-09-08T09:13:41.936Z,45.15
2023-09-08T09:16:14.703Z,45.37
2023-09-08T09:19:11.518Z,45.87
2023-09-08T09:21:52.264Z,45.76
2023-09-08T09:24:30.685Z,45.66
2023-09-08T09:26:58.264Z,45.74
2023-09-08T09:29:24.977Z,45.93
2023-09-08T09:32:07.773Z,46.11
2023-09-08T09:35:04.758Z,45.83
2023-09-08T09:37:32.260Z,45.38
2023-09-08T09:40:01.089Z,45.21
2023-09-08T09:42:29.392Z,44.98
2023-09-08T09:44:56.297Z,44.70
2023-09-08T09:47:23.695Z,44.31
2023-09-08T09:49:50.707Z,44.00
2023-09-08T09:52:27.210Z,43.86
2023-09-08T09:54:58.049Z,43.60
2023-09-08T09:57:26.014Z,43.35
2023-09-08T09:59:54.817Z,43.13
2023-09-08T10:02:22.773Z,42.92
2023-09-08T10:04:51.358Z,42.75
2023-09-08T10:07:19.075Z,42.40
2023-09-08T10:09:46.264Z,42.02
2023-09-08T10:12:16.998Z,41.75
2023-09-08T10:14:44.760Z,41.54
2023-09-08T10:17:17.517Z,41.34
2023-09-08T10:19:51.429Z,40.95
2023-09-08T10:22:23.694Z,40.74
2023-09-08T10:24:54.900Z,40.45
2023-09-08T10:27:23.382Z,40.24
2023-09-08T10:29:51.192Z,39.97
2023-09-08T10:32:19.637Z,39.79
2023-09-08T10:34:47.251Z,39.44
2023-09-08T10:37:28.914Z,38.79
2023-09-08T10:39:55.912Z,38.34
2023-09-08T10:42:30.527Z,38.25
2023-09-08T10:45:00.191Z,38.19
2023-09-08T10:47:31.887Z,38.04
2023-09-08T10:50:01.537Z,37.75
2023-09-08T10:52:28.697Z,37.56
2023-09-08T10:54:56.966Z,37.42
2023-09-08T10:57:26.412Z,37.08
2023-09-08T10:59:53.638Z,36.88
2023-09-08T11:02:40.173Z,36.79
2023-09-08T11:05:15.013Z,36.80
2023-09-08T11:07:44.524Z,36.82
2023-09-08T11:10:12.627Z,36.72
2023-09-08T11:12:39.736Z,36.54
2023-09-08T11:15:09.720Z,36.49
2023-09-08T11:17:43.666Z,36.37
2023-09-08T11:20:11.955Z,36.19
2023-09-08T11:22:40.598Z,36.05
2023-09-08T11:25:09.065Z,35.83
2023-09-08T11:27:36.118Z,35.65
2023-09-08T11:30:03.132Z,35.56
2023-09-08T11:32:34.325Z,35.65
2023-09-08T11:35:10.291Z,35.58
2023-09-08T11:37:43.719Z,35.43
2023-09-08T11:40:13.652Z,35.28
2023-09-08T11:42:45.251Z,35.20
2023-09-08T11:45:19.378Z,35.13
2023-09-08T11:47:46.378Z,34.94
2023-09-08T11:50:16.902Z,34.77
2023-09-08T11:52:50.347Z,34.77
2023-09-08T11:55:18.460Z,34.87
2023-09-08T11:57:47.905Z,34.86
2023-09-08T12:00:18.443Z,34.75
2023-09-08T12:02:46.510Z,34.61
2023-09-08T12:05:26.369Z,34.54
2023-09-08T12:07:54.970Z,34.59
2023-09-08T12:10:23.021Z,34.62
2023-09-08T12:12:54.710Z,34.65
2023-09-08T12:15:51.204Z,34.66
2023-09-08T12:18:18.311Z,34.58
2023-09-08T12:20:45.873Z,34.53
2023-09-08T12:23:22.736Z,34.53
2023-09-08T12:25:51.803Z,34.54
2023-09-08T12:28:20.512Z,34.53
2023-09-08T12:30:47.952Z,34.50
2023-09-08T12:33:16.354Z,34.50
2023-09-08T12:35:49.438Z,34.43
2023-09-08T12:38:16.201Z,34.32
2023-09-08T12:40:42.903Z,34.22
2023-09-08T12:43:21.256Z,34.14
2023-09-08T12:45:54.542Z,34.10
2023-09-08T12:48:21.333Z,34.05
2023-09-08T12:50:49.422Z,33.93
2023-09-08T12:53:18.176Z,33.85
2023-09-08T12:55:45.083Z,33.75
2023-09-08T12:58:11.708Z,33.68
2023-09-08T13:00:38.474Z,33.64
2023-09-08T13:03:05.697Z,33.62
2023-09-08T13:05:35.379Z,33.57
2023-09-08T13:08:02.152Z,33.44
2023-09-08T13:10:28.992Z,33.36
2023-09-08T13:12:56.001Z,33.34
2023-09-08T13:15:24.994Z,33.30
2023-09-08T13:17:52.435Z,33.30
2023-09-08T13:20:19.550Z,33.30
2023-09-08T13:22:46.406Z,33.32
2023-09-08T13:25:13.234Z,33.33
2023-09-08T13:27:45.885Z,33.31
2023-09-08T13:30:14.955Z,33.27
2023-09-08T13:32:42.039Z,33.20
2023-09-08T13:35:09.277Z,33.18
2023-09-08T13:37:36.005Z,33.14
2023-09-08T13:40:05.661Z,33.13
2023-09-08T13:42:33.591Z,33.13
2023-09-08T13:45:00.710Z,33.14
2023-09-08T13:47:28.818Z,33.13
2023-09-08T13:49:58.380Z,33.12
2023-09-08T13:52:27.568Z,33.12
2023-09-08T13:55:19.255Z,33.15
2023-09-08T13:57:43.671Z,33.16
2023-09-08T14:00:16.377Z,33.11
2023-09-08T14:02:49.463Z,33.04
2023-09-08T14:05:19.483Z,33.01
2023-09-08T14:07:55.972Z,33.01
2023-09-08T14:12:54.429Z,32.99
2023-09-08T14:15:23.959Z,33.02
2023-09-08T14:17:51.496Z,33.07
2023-09-08T14:20:18.160Z,33.12
2023-09-08T14:22:45.002Z,33.14
2023-09-08T14:25:11.728Z,33.09
2023-09-08T14:27:38.952Z,33.07
2023-09-08T14:30:06.943Z,33.08
2023-09-08T14:32:33.867Z,33.12
2023-09-08T14:35:00.547Z,33.08
2023-09-08T14:37:48.680Z,33.03
2023-09-08T14:40:16.450Z,32.97
2023-09-08T14:42:43.162Z,32.92
2023-09-08T14:45:10.371Z,32.90
2023-09-08T14:47:37.241Z,32.93
2023-09-08T14:50:04.537Z,32.97
2023-09-08T14:52:31.319Z,33.00
2023-09-08T14:54:58.258Z,32.98
2023-09-08T14:57:24.981Z,32.99
2023-09-08T14:59:55.384Z,33.02
2023-09-08T15:02:23.649Z,33.04
2023-09-08T15:04:50.539Z,33.02
2023-09-08T15:07:17.471Z,32.98
2023-09-08T15:09:44.141Z,32.92
2023-09-08T15:12:11.262Z,32.91
2023-09-08T15:14:37.946Z,32.89
2023-09-08T15:17:06.268Z,32.91
2023-09-08T15:19:33.428Z,32.97
2023-09-08T15:22:00.337Z,33.00
2023-09-08T15:24:27.066Z,32.98
2023-09-08T15:26:54.723Z,32.93
2023-09-08T15:29:21.541Z,32.92
2023-09-08T15:31:49.961Z,32.92
2023-09-08T15:34:16.905Z,32.96
2023-09-08T15:36:43.682Z,33.00
2023-09-08T15:39:10.442Z,33.00
2023-09-08T15:41:37.172Z,33.00
2023-09-08T15:44:04.170Z,32.99
2023-09-08T15:46:31.137Z,32.95
2023-09-08T15:48:57.965Z,32.88
2023-09-08T15:51:24.674Z,32.82
2023-09-08T15:53:51.490Z,32.78
2023-09-08T15:56:18.267Z,32.72
2023-09-08T15:58:45.073Z,32.63
2023-09-08T16:01:13.321Z,32.55
2023-09-08T16:03:40.862Z,32.51
2023-09-08T16:06:09.286Z,32.46
2023-09-08T16:08:37.828Z,32.44
2023-09-08T16:11:04.563Z,32.41
2023-09-08T16:13:32.481Z,32.32
2023-09-08T16:16:00.162Z,32.22
2023-09-08T16:18:27.276Z,32.15
2023-09-08T16:20:54.101Z,32.08
2023-09-08T16:23:21.474Z,32.01
2023-09-08T16:25:48.169Z,31.94
2023-09-08T16:28:14.871Z,31.90
2023-09-08T16:30:41.805Z,31.86
2023-09-08T16:33:08.691Z,31.79
2023-09-08T16:35:35.960Z,31.74
2023-09-08T16:38:03.551Z,31.69
2023-09-08T16:40:30.200Z,31.63
2023-09-08T16:43:17.384Z,31.55
2023-09-08T16:45:45.449Z,31.47
2023-09-08T16:48:14.739Z,31.42
2023-09-08T16:50:41.497Z,31.34
2023-09-08T16:53:09.266Z,31.25
2023-09-08T16:55:36.099Z,31.18
2023-09-08T16:58:02.941Z,31.12
2023-09-08T17:00:29.786Z,31.06
2023-09-08T17:02:56.631Z,30.99
2023-09-08T17:05:23.569Z,30.93
2023-09-08T17:07:52.212Z,30.85
2023-09-08T17:10:19.226Z,30.78
2023-09-08T17:12:46.201Z,30.73
2023-09-08T17:15:13.026Z,30.66
2023-09-08T17:17:40.348Z,30.59
2023-09-08T17:20:09.092Z,30.54
2023-09-08T17:22:36.167Z,30.48
2023-09-08T17:25:04.263Z,30.44
2023-09-08T17:27:32.095Z,30.38
2023-09-08T17:30:00.390Z,30.33
2023-09-08T17:32:27.413Z,30.27
2023-09-08T17:34:55.555Z,30.22
2023-09-08T17:37:24.560Z,30.16
2023-09-08T17:39:51.340Z,30.11
2023-09-08T17:42:18.142Z,30.06
2023-09-08T17:44:45.526Z,29.98
2023-09-08T17:47:14.314Z,29.91
2023-09-08T17:49:41.170Z,29.85
2023-09-08T17:52:08.081Z,29.79
2023-09-08T17:54:35.116Z,29.72
2023-09-08T17:57:02.092Z,29.65
2023-09-08T17:59:28.808Z,29.62
2023-09-08T18:01:55.765Z,29.58
2023-09-08T18:04:44.196Z,29.51
2023-09-08T18:07:11.344Z,29.49
2023-09-08T18:09:38.343Z,29.45
2023-09-08T18:12:05.762Z,29.41
2023-09-08T18:14:32.571Z,29.36
2023-09-08T18:16:59.563Z,29.33
2023-09-08T18:19:26.357Z,29.28
2023-09-08T18:21:53.136Z,29.26
2023-09-08T18:24:19.838Z,29.23
2023-09-08T18:26:46.784Z,29.20
2023-09-08T18:29:13.534Z,29.17
2023-09-08T18:31:42.159Z,29.14
2023-09-08T18:34:09.959Z,29.11
2023-09-08T18:36:38.344Z,29.07
2023-09-08T18:39:10.813Z,29.04
2023-09-08T18:41:39.239Z,29.02
2023-09-08T18:44:06.106Z,28.99
2023-09-08T18:46:33.671Z,28.96
2023-09-08T18:49:00.410Z,28.94
2023-09-08T18:51:27.235Z,28.91
2023-09-08T18:53:58.204Z,28.90
2023-09-08T18:56:24.910Z,28.91
2023-09-08T18:58:51.782Z,28.89
2023-09-08T19:01:19.038Z,28.84
2023-09-08T19:03:45.942Z,28.78
2023-09-08T19:06:12.947Z,28.76
2023-09-08T19:08:39.889Z,28.72
2023-09-08T19:11:06.856Z,28.68
2023-09-08T19:13:33.717Z,28.66
2023-09-08T19:16:00.649Z,28.63
2023-09-08T19:18:27.540Z,28.60
2023-09-08T19:20:57.266Z,28.57
2023-09-08T19:23:24.481Z,28.53
2023-09-08T19:25:52.661Z,28.52
2023-09-08T19:28:19.526Z,28.47
2023-09-08T19:30:49.111Z,28.45
2023-09-08T19:33:17.700Z,28.42
2023-09-08T19:35:45.953Z,28.37
2023-09-08T19:38:12.914Z,28.32
2023-09-08T19:40:40.108Z,28.28
2023-09-08T19:43:07.410Z,28.25
2023-09-08T19:45:37.455Z,28.21
2023-09-08T19:48:06.755Z,28.18
2023-09-08T19:50:34.156Z,28.12
2023-09-08T19:53:01.000Z,28.04
2023-09-08T19:55:28.274Z,27.97
2023-09-08T19:57:55.173Z,27.90
2023-09-08T20:00:22.397Z,27.85
2023-09-08T20:02:49.254Z,27.81
2023-09-08T20:05:16.512Z,27.78
2023-09-08T20:07:44.939Z,27.71
2023-09-08T20:10:12.756Z,27.65
2023-09-08T20:12:42.429Z,27.62
2023-09-08T20:15:10.065Z,27.57
2023-09-08T20:17:37.007Z,27.51
2023-09-08T20:20:04.190Z,27.46
2023-09-08T20:22:31.289Z,27.41
2023-09-08T20:24:58.183Z,27.40
2023-09-08T20:27:26.448Z,27.37
2023-09-08T20:29:57.069Z,27.36
2023-09-08T20:32:25.106Z,27.34
2023-09-08T20:34:52.082Z,27.35
2023-09-08T20:37:19.992Z,27.34
2023-09-08T20:39:46.895Z,27.34
2023-09-08T20:42:13.892Z,27.34
2023-09-08T20:44:41.230Z,27.31
2023-09-08T20:47:08.658Z,27.30
2023-09-08T20:49:35.557Z,27.30
2023-09-08T20:52:02.442Z,27.29
2023-09-08T20:54:29.855Z,27.27
2023-09-08T20:56:57.295Z,27.24
2023-09-08T20:59:42.722Z,27.20
2023-09-08T21:02:10.116Z,27.17
2023-09-08T21:04:36.912Z,27.14
2023-09-08T21:07:05.354Z,27.10
2023-09-08T21:09:32.098Z,27.09
2023-09-08T21:11:59.006Z,27.04
2023-09-08T21:14:25.743Z,27.00
2023-09-08T21:16:52.572Z,26.99
2023-09-08T21:19:20.739Z,26.95
2023-09-08T21:21:47.914Z,26.93
2023-09-08T21:24:14.751Z,26.92
2023-09-08T21:26:41.719Z,26.88
2023-09-08T21:29:10.079Z,26.87
2023-09-08T21:31:37.432Z,26.83
2023-09-08T21:34:04.837Z,26.78
2023-09-08T21:36:32.140Z,26.76
2023-09-08T21:39:01.260Z,26.74
2023-09-08T21:41:29.798Z,26.74
2023-09-08T21:43:56.976Z,26.74
2023-09-08T21:46:23.848Z,26.73
2023-09-08T21:48:50.644Z,26.72
2023-09-08T21:51:17.582Z,26.70
2023-09-08T21:53:44.500Z,26.69
2023-09-08T21:56:11.415Z,26.67
2023-09-08T21:58:39.909Z,26.67
2023-09-08T22:01:08.312Z,26.65
2023-09-08T22:03:35.633Z,26.63
2023-09-08T22:06:03.536Z,26.61
2023-09-08T22:08:30.525Z,26.59
2023-09-08T22:11:06.199Z,26.54
2023-09-08T22:13:52.166Z,26.53
2023-09-08T22:16:19.173Z,26.51
2023-09-08T22:18:46.128Z,26.49
2023-09-08T22:21:32.705Z,26.45
2023-09-08T22:23:59.708Z,26.42
2023-09-08T22:26:26.597Z,26.38
2023-09-08T22:28:53.525Z,26.36
2023-09-08T22:31:20.367Z,26.33
2023-09-08T22:33:48.641Z,26.31
2023-09-08T22:36:15.803Z,26.28
2023-09-08T22:38:42.763Z,26.24
2023-09-08T22:41:09.645Z,26.17
2023-09-08T22:43:36.755Z,26.10
2023-09-08T22:46:04.263Z,26.04
2023-09-08T22:48:32.449Z,26.01
2023-09-08T22:51:00.309Z,25.97
2023-09-08T22:53:28.571Z,25.94
2023-09-08T22:55:55.387Z,25.91
2023-09-08T22:58:22.397Z,25.87
2023-09-08T23:00:49.199Z,25.81
2023-09-08T23:03:16.053Z,25.76
2023-09-08T23:05:43.588Z,25.72
2023-09-08T23:08:10.838Z,25.70
2023-09-08T23:10:37.563Z,25.67
2023-09-08T23:13:04.433Z,25.66
2023-09-08T23:15:31.202Z,25.66
2023-09-08T23:17:58.335Z,25.65
2023-09-08T23:20:25.268Z,25.64
2023-09-08T23:22:52.013Z,25.62
2023-09-08T23:25:18.763Z,25.60
2023-09-08T23:27:45.702Z,25.56
2023-09-08T23:30:13.114Z,25.55
2023-09-08T23:32:41.024Z,25.53
2023-09-08T23:35:09.564Z,25.52
2023-09-08T23:37:36.473Z,25.49
2023-09-08T23:40:05.987Z,25.47
2023-09-08T23:42:32.779Z,25.45
2023-09-08T23:44:59.566Z,25.41
2023-09-08T23:47:26.466Z,25.40
2023-09-08T23:49:53.203Z,25.36
2023-09-08T23:52:20.108Z,25.36
2023-09-08T23:54:46.799Z,25.35
2023-09-08T23:57:32.264Z,25.36
2023-09-08T23:59:59.162Z,25.33
